createdAt,value
2022-08-25T00:02:00.620Z,148.93
2022-08-25T00:04:30.605Z,121.40
2022-08-25T00:07:02.690Z,118.68
2022-08-25T00:09:33.085Z,128.15
2022-08-25T00:12:01.606Z,127.90
2022-08-25T00:14:33.785Z,120.32
2022-08-25T00:17:01.712Z,116.32
2022-08-25T00:19:32.692Z,134.50
2022-08-25T00:22:01.641Z,136.55
2022-08-25T00:24:29.777Z,132.95
2022-08-25T00:26:59.541Z,119.00
2022-08-25T00:29:27.987Z,127.50
2022-08-25T00:31:58.126Z,134.73
2022-08-25T00:34:29.888Z,151.48
2022-08-25T00:36:57.956Z,147.32
2022-08-25T00:39:25.952Z,146.82
2022-08-25T00:41:57.146Z,151.82
2022-08-25T00:44:27.856Z,133.77
2022-08-25T00:46:57.965Z,137.48
2022-08-25T00:49:48.208Z,121.90
2022-08-25T00:52:25.860Z,115.45
2022-08-25T00:55:03.038Z,115.88
2022-08-25T00:57:58.851Z,113.68
2022-08-25T01:00:33.901Z,118.20
2022-08-25T01:03:01.932Z,121.75
2022-08-25T01:05:30.504Z,122.85
2022-08-25T01:07:59.907Z,127.38
2022-08-25T01:10:28.972Z,124.13
2022-08-25T01:13:01.533Z,117.65
2022-08-25T01:15:30.222Z,113.10
2022-08-25T01:17:59.783Z,118.90
2022-08-25T01:20:29.765Z,109.60
2022-08-25T01:22:59.653Z,114.05
2022-08-25T01:25:51.697Z,115.55
2022-08-25T01:28:21.201Z,131.57
2022-08-25T01:30:50.307Z,133.95
2022-08-25T01:33:17.853Z,138.25
2022-08-25T01:35:46.042Z,134.02
2022-08-25T01:38:14.419Z,158.25
2022-08-25T01:40:45.907Z,125.72
2022-08-25T01:43:17.602Z,150.55
2022-08-25T01:45:48.564Z,148.43
2022-08-25T01:48:16.887Z,139.23
2022-08-25T01:50:44.850Z,126.20
2022-08-25T01:53:30.295Z,144.80
2022-08-25T01:56:09.732Z,186.20
2022-08-25T01:58:40.151Z,161.70
2022-08-25T02:01:12.037Z,161.82
2022-08-25T02:03:42.362Z,144.98
2022-08-25T02:06:13.198Z,202.13
2022-08-25T02:08:41.914Z,242.50
2022-08-25T02:11:14.260Z,265.77
2022-08-25T02:13:43.004Z,237.73
2022-08-25T02:16:15.326Z,252.38
2022-08-25T02:18:42.915Z,255.00
2022-08-25T02:21:11.533Z,258.35
2022-08-25T02:23:39.168Z,265.65
2022-08-25T02:26:06.638Z,269.10
2022-08-25T02:28:34.190Z,275.80
2022-08-25T02:31:01.952Z,277.20
2022-08-25T02:33:29.794Z,278.25
2022-08-25T02:36:01.109Z,268.60
2022-08-25T02:38:29.461Z,269.38
2022-08-25T02:40:58.809Z,285.23
2022-08-25T02:43:27.188Z,267.60
2022-08-25T02:45:58.242Z,272.30
2022-08-25T02:48:25.916Z,286.77
2022-08-25T02:50:53.679Z,272.80
2022-08-25T02:53:22.079Z,275.85
2022-08-25T02:55:49.579Z,278.42
2022-08-25T02:58:17.047Z,288.80
2022-08-25T03:00:46.246Z,285.23
2022-08-25T03:03:13.963Z,286.02
2022-08-25T03:05:42.073Z,280.40
2022-08-25T03:08:11.288Z,278.80
2022-08-25T03:10:39.637Z,274.00
2022-08-25T03:13:07.279Z,275.27
2022-08-25T03:15:37.975Z,280.55
2022-08-25T03:18:08.081Z,263.55
2022-08-25T03:20:36.459Z,266.80
2022-08-25T03:23:05.170Z,233.23
2022-08-25T03:25:51.639Z,259.08
2022-08-25T03:28:19.818Z,260.48
2022-08-25T03:30:55.913Z,244.00
2022-08-25T03:33:24.116Z,279.45
2022-08-25T03:35:51.509Z,267.08
2022-08-25T03:38:19.195Z,264.65
2022-08-25T03:40:46.563Z,264.38
2022-08-25T03:43:14.011Z,234.95
2022-08-25T03:45:46.012Z,244.27
2022-08-25T03:48:14.451Z,256.60
2022-08-25T03:50:51.791Z,272.52
2022-08-25T03:53:20.736Z,231.13
2022-08-25T03:55:48.556Z,237.25
2022-08-25T03:58:17.220Z,244.40
2022-08-25T04:00:45.134Z,249.63
2022-08-25T04:03:12.646Z,260.83
2022-08-25T04:05:40.204Z,251.40
2022-08-25T04:08:08.158Z,239.43
2022-08-25T04:10:37.735Z,227.50
2022-08-25T04:13:06.374Z,234.82
2022-08-25T04:15:33.678Z,243.20
2022-08-25T04:18:01.257Z,239.90
2022-08-25T04:20:28.552Z,206.00
2022-08-25T04:22:56.101Z,196.40
2022-08-25T04:25:23.344Z,249.02
2022-08-25T04:27:50.839Z,271.67
2022-08-25T04:30:18.768Z,252.65
2022-08-25T04:32:46.215Z,184.25
2022-08-25T04:35:13.537Z,174.75
2022-08-25T04:37:41.315Z,209.20
2022-08-25T04:40:10.649Z,202.52
2022-08-25T04:42:38.814Z,203.20
2022-08-25T04:45:07.196Z,235.90
2022-08-25T04:47:39.003Z,210.90
2022-08-25T04:50:08.031Z,218.20
2022-08-25T04:52:35.449Z,240.57
2022-08-25T04:55:03.395Z,216.82
2022-08-25T04:57:31.220Z,224.57
2022-08-25T04:59:58.665Z,234.75
2022-08-25T05:02:26.173Z,233.07
2022-08-25T05:04:55.690Z,219.90
2022-08-25T05:07:23.144Z,183.85
2022-08-25T05:09:50.592Z,213.15
2022-08-25T05:12:17.877Z,160.07
2022-08-25T05:14:45.367Z,185.68
2022-08-25T05:17:12.784Z,202.07
2022-08-25T05:19:40.289Z,191.65
2022-08-25T05:22:07.783Z,168.45
2022-08-25T05:24:35.353Z,154.55
2022-08-25T05:27:04.155Z,164.07
2022-08-25T05:29:31.564Z,156.57
2022-08-25T05:31:59.013Z,146.48
2022-08-25T05:34:26.593Z,152.48
2022-08-25T05:36:54.735Z,137.52
2022-08-25T05:39:22.100Z,142.93
2022-08-25T05:41:49.545Z,141.43
2022-08-25T05:44:20.542Z,129.77
2022-08-25T05:46:49.652Z,143.63
2022-08-25T05:49:17.139Z,175.82
2022-08-25T05:51:44.536Z,155.10
2022-08-25T05:54:11.911Z,164.95
2022-08-25T05:56:40.250Z,154.18
2022-08-25T05:59:09.612Z,164.25
2022-08-25T06:01:56.362Z,159.55
2022-08-25T06:04:24.134Z,166.32
2022-08-25T06:06:54.070Z,29.52
2022-08-25T06:09:22.676Z,154.00
2022-08-25T06:11:54.501Z,160.52
2022-08-25T06:14:24.016Z,175.10
2022-08-25T06:16:52.016Z,111.65
2022-08-25T06:19:19.451Z,114.30
2022-08-25T06:21:46.923Z,74.45
2022-08-25T06:24:15.759Z,71.38
2022-08-25T06:26:44.451Z,77.25
2022-08-25T06:29:14.333Z,75.00
2022-08-25T06:31:42.740Z,99.95
2022-08-25T06:34:11.713Z,21.63
2022-08-25T06:36:39.742Z,109.70
2022-08-25T06:39:07.422Z,107.50
2022-08-25T06:41:37.343Z,107.88
2022-08-25T06:44:05.868Z,102.15
2022-08-25T06:46:36.821Z,101.22
2022-08-25T06:49:06.806Z,73.95
2022-08-25T06:51:37.926Z,100.00
2022-08-25T06:54:07.628Z,97.75
2022-08-25T06:56:35.252Z,98.60
2022-08-25T06:59:04.607Z,99.88
2022-08-25T07:01:32.508Z,75.22
2022-08-25T07:04:01.723Z,23.15
2022-08-25T07:06:32.156Z,25.77
2022-08-25T07:09:00.311Z,21.17
2022-08-25T07:11:27.996Z,27.02
2022-08-25T07:13:55.542Z,26.92
2022-08-25T07:16:25.724Z,21.35
2022-08-25T07:19:00.286Z,22.92
2022-08-25T07:21:33.424Z,21.45
2022-08-25T07:24:07.115Z,23.13
2022-08-25T07:26:38.994Z,22.98
2022-08-25T07:29:17.470Z,23.40
2022-08-25T07:31:45.549Z,22.73
2022-08-25T07:34:31.420Z,23.10
2022-08-25T07:36:59.350Z,21.52
2022-08-25T07:39:29.126Z,21.17
2022-08-25T07:41:56.903Z,20.40
2022-08-25T07:44:24.993Z,24.63
2022-08-25T07:46:56.137Z,30.70
2022-08-25T07:49:24.857Z,56.05
2022-08-25T07:52:03.608Z,112.03
2022-08-25T07:54:35.203Z,29.92
2022-08-25T07:57:04.744Z,31.90
2022-08-25T07:59:39.397Z,102.22
2022-08-25T08:02:18.439Z,104.05
2022-08-25T08:04:49.748Z,25.00
2022-08-25T08:07:20.753Z,29.17
2022-08-25T08:10:05.311Z,30.00
2022-08-25T08:12:38.365Z,24.75
2022-08-25T08:15:10.365Z,35.40
2022-08-25T08:17:39.726Z,25.85
2022-08-25T08:20:11.132Z,23.95
2022-08-25T08:22:41.436Z,24.20
2022-08-25T08:25:11.167Z,25.98
2022-08-25T08:27:47.133Z,27.35
2022-08-25T08:30:15.110Z,20.55
2022-08-25T08:33:06.446Z,18.42
2022-08-25T08:35:31.046Z,20.45
2022-08-25T08:37:58.415Z,15.05
2022-08-25T08:40:26.227Z,18.35
2022-08-25T08:42:59.528Z,23.10
2022-08-25T08:45:35.664Z,24.45
2022-08-25T08:48:28.755Z,26.33
2022-08-25T08:51:09.988Z,29.83
2022-08-25T08:54:15.375Z,19.75
2022-08-25T08:56:48.306Z,23.10
2022-08-25T08:59:30.151Z,18.85
2022-08-25T09:02:01.243Z,18.60
2022-08-25T09:04:50.291Z,17.23
2022-08-25T09:07:24.130Z,16.38
2022-08-25T09:09:52.654Z,16.67
2022-08-25T09:12:47.508Z,18.63
2022-08-25T09:15:20.866Z,20.15
2022-08-25T09:17:58.032Z,19.93
2022-08-25T09:20:40.100Z,17.88
2022-08-25T09:23:40.154Z,18.85
2022-08-25T09:26:34.027Z,20.05
2022-08-25T09:29:16.381Z,16.95
2022-08-25T09:31:45.450Z,18.33
2022-08-25T09:34:21.562Z,19.38
2022-08-25T09:36:53.522Z,19.88
2022-08-25T09:39:23.407Z,19.95
2022-08-25T09:41:56.285Z,19.48
2022-08-25T09:44:28.256Z,18.90
2022-08-25T09:47:22.433Z,23.35
2022-08-25T09:50:00.907Z,23.55
2022-08-25T09:52:33.998Z,18.38
2022-08-25T09:55:14.577Z,23.83
2022-08-25T09:57:46.280Z,23.50
2022-08-25T10:00:23.111Z,25.00
2022-08-25T10:03:24.539Z,23.83
2022-08-25T10:05:56.547Z,15.70
2022-08-25T10:08:40.691Z,17.80
2022-08-25T10:11:15.424Z,17.77
2022-08-25T10:13:46.946Z,17.00
2022-08-25T10:16:35.551Z,21.27
2022-08-25T10:19:11.071Z,27.50
2022-08-25T10:21:43.694Z,27.80
2022-08-25T10:24:13.514Z,28.80
2022-08-25T10:27:01.402Z,23.42
2022-08-25T10:30:12.414Z,25.25
2022-08-25T10:32:52.658Z,23.42
2022-08-25T10:35:24.756Z,25.55
2022-08-25T10:38:04.613Z,21.17
2022-08-25T10:40:44.275Z,21.20
2022-08-25T10:43:19.232Z,23.38
2022-08-25T10:46:07.148Z,16.73
2022-08-25T10:48:49.941Z,21.60
2022-08-25T10:51:37.933Z,23.10
2022-08-25T10:54:26.791Z,27.80
2022-08-25T10:57:19.733Z,83.45
2022-08-25T11:00:23.281Z,123.53
2022-08-25T11:03:30.212Z,99.63
2022-08-25T11:06:35.359Z,126.47
2022-08-25T11:09:08.045Z,123.80
2022-08-25T11:11:38.704Z,120.40
2022-08-25T11:14:19.419Z,128.75
2022-08-25T11:17:10.274Z,118.03
2022-08-25T11:19:49.050Z,133.63
2022-08-25T11:22:22.590Z,139.10
2022-08-25T11:25:07.918Z,141.27
2022-08-25T11:27:58.067Z,122.13
2022-08-25T11:30:26.414Z,122.55
2022-08-25T11:32:55.585Z,117.45
2022-08-25T11:35:40.324Z,89.72
2022-08-25T11:38:14.815Z,119.38
2022-08-25T11:41:11.267Z,88.05
2022-08-25T11:44:10.565Z,115.38
2022-08-25T11:46:43.962Z,81.72
2022-08-25T11:51:49.548Z,121.68
2022-08-25T11:54:36.797Z,83.03
2022-08-25T11:57:09.104Z,114.30
2022-08-25T11:59:51.802Z,111.75
2022-08-25T12:02:31.154Z,108.88
2022-08-25T12:04:58.908Z,28.98
2022-08-25T12:07:30.079Z,26.52
2022-08-25T12:10:06.276Z,23.75
2022-08-25T12:12:57.165Z,86.80
2022-08-25T12:15:27.701Z,140.48
2022-08-25T12:18:23.039Z,144.30
2022-08-25T12:20:59.231Z,160.43
2022-08-25T12:23:39.900Z,182.60
2022-08-25T12:26:36.745Z,184.88
2022-08-25T12:29:16.783Z,185.52
2022-08-25T12:32:07.127Z,161.52
2022-08-25T12:35:10.403Z,155.27
2022-08-25T12:37:55.925Z,166.77
2022-08-25T12:40:36.299Z,174.63
2022-08-25T12:43:09.773Z,163.73
2022-08-25T12:45:41.109Z,165.07
2022-08-25T12:48:31.904Z,151.52
2022-08-25T12:51:09.890Z,156.85
2022-08-25T12:53:43.420Z,149.57
2022-08-25T12:56:25.703Z,141.05
2022-08-25T12:59:02.062Z,129.93
2022-08-25T13:02:03.186Z,118.30
2022-08-25T13:04:41.568Z,106.00
2022-08-25T13:07:33.207Z,108.22
2022-08-25T13:10:28.039Z,74.30
2022-08-25T13:13:24.346Z,26.17
2022-08-25T13:16:03.348Z,50.25
2022-08-25T13:18:34.581Z,116.70
2022-08-25T13:21:22.149Z,112.75
2022-08-25T13:23:54.112Z,108.25
2022-08-25T13:26:35.327Z,113.28
2022-08-25T13:29:13.129Z,113.75
2022-08-25T13:32:09.167Z,130.10
2022-08-25T13:34:42.572Z,146.30
2022-08-25T13:37:31.460Z,156.70
2022-08-25T13:40:11.174Z,151.27
2022-08-25T13:42:45.876Z,142.07
2022-08-25T13:45:25.264Z,133.20
2022-08-25T13:47:56.081Z,120.43
2022-08-25T13:50:26.883Z,89.40
2022-08-25T13:53:13.539Z,125.65
2022-08-25T13:55:51.640Z,137.38
2022-08-25T13:58:39.321Z,135.10
2022-08-25T14:01:47.135Z,124.10
2022-08-25T14:04:51.448Z,127.57
2022-08-25T14:07:21.016Z,124.47
2022-08-25T14:09:52.131Z,112.32
2022-08-25T14:12:35.136Z,9.85
2022-08-25T14:15:32.111Z,42.80
2022-08-25T14:18:15.108Z,62.47
2022-08-25T14:20:52.302Z,64.70
2022-08-25T14:23:24.850Z,68.25
2022-08-25T14:25:54.551Z,42.50
2022-08-25T14:28:25.496Z,95.03
2022-08-25T14:31:15.356Z,18.95
2022-08-25T14:33:53.999Z,19.17
2022-08-25T14:36:21.581Z,14.90
2022-08-25T14:38:54.673Z,161.75
2022-08-25T14:43:51.929Z,105.30
2022-08-25T14:46:27.206Z,103.85
2022-08-25T14:49:00.497Z,104.15
2022-08-25T14:51:30.197Z,101.78
2022-08-25T14:54:01.964Z,77.97
2022-08-25T14:56:30.913Z,103.78
2022-08-25T14:58:59.784Z,102.43
2022-08-25T15:01:29.778Z,100.03
2022-08-25T15:04:13.347Z,103.05
2022-08-25T15:06:43.886Z,111.22
2022-08-25T15:09:16.151Z,76.60
2022-08-25T15:11:47.142Z,107.00
2022-08-25T15:14:19.307Z,102.45
2022-08-25T15:16:57.866Z,109.13
2022-08-25T15:19:27.599Z,113.72
2022-08-25T15:21:57.709Z,120.75
2022-08-25T15:24:28.454Z,110.60
2022-08-25T15:27:01.567Z,75.38
2022-08-25T15:29:31.351Z,107.68
2022-08-25T15:32:00.590Z,76.60
2022-08-25T15:34:29.510Z,101.78
2022-08-25T15:36:59.061Z,101.03
2022-08-25T15:39:27.634Z,78.82
2022-08-25T15:41:57.190Z,109.63
2022-08-25T15:44:29.490Z,103.63
2022-08-25T15:46:59.630Z,108.90
2022-08-25T15:49:29.821Z,76.95
2022-08-25T15:52:00.220Z,79.40
2022-08-25T15:54:28.680Z,96.47
2022-08-25T15:56:58.687Z,74.47
2022-08-25T15:59:28.182Z,98.40
2022-08-25T16:01:56.438Z,106.15
2022-08-25T16:04:26.908Z,96.00
2022-08-25T16:06:55.542Z,98.20
2022-08-25T16:09:23.642Z,99.47
2022-08-25T16:11:56.495Z,103.95
2022-08-25T16:14:27.591Z,75.55
2022-08-25T16:16:58.197Z,103.25
2022-08-25T16:19:27.935Z,77.28
2022-08-25T16:21:58.113Z,103.10
2022-08-25T16:24:28.120Z,99.80
2022-08-25T16:27:11.594Z,103.55
2022-08-25T16:29:42.988Z,105.45
2022-08-25T16:32:14.606Z,105.13
2022-08-25T16:34:42.531Z,73.60
2022-08-25T16:37:10.973Z,97.07
2022-08-25T16:39:41.338Z,84.35
2022-08-25T16:42:08.925Z,108.40
2022-08-25T16:44:37.612Z,98.85
2022-08-25T16:47:08.770Z,100.32
2022-08-25T16:49:37.096Z,102.50
2022-08-25T16:52:28.544Z,100.80
2022-08-25T16:55:13.615Z,97.47
2022-08-25T16:57:51.357Z,95.35
2022-08-25T17:00:25.027Z,70.72
2022-08-25T17:03:04.977Z,92.82
2022-08-25T17:05:39.299Z,94.35
2022-08-25T17:08:25.652Z,24.88
2022-08-25T17:10:53.735Z,25.15
2022-08-25T17:13:21.742Z,26.98
2022-08-25T17:15:52.148Z,30.80
2022-08-25T17:18:20.174Z,24.17
2022-08-25T17:20:51.247Z,21.60
2022-08-25T17:23:21.151Z,22.38
2022-08-25T17:25:50.176Z,23.15
2022-08-25T17:28:18.579Z,27.50
2022-08-25T17:30:47.118Z,25.75
2022-08-25T17:33:15.198Z,72.28
2022-08-25T17:35:45.134Z,68.50
2022-08-25T17:38:14.977Z,91.60
2022-08-25T17:40:43.402Z,95.20
2022-08-25T17:43:11.681Z,70.75
2022-08-25T17:45:40.314Z,102.80
2022-08-25T17:48:09.273Z,92.75
2022-08-25T17:50:39.403Z,70.78
2022-08-25T17:53:08.030Z,94.90
2022-08-25T17:55:37.706Z,75.97
2022-08-25T17:58:05.466Z,93.38
2022-08-25T18:00:33.283Z,93.20
2022-08-25T18:03:04.268Z,92.90
2022-08-25T18:05:33.840Z,21.65
2022-08-25T18:08:01.310Z,22.15
2022-08-25T18:10:31.389Z,23.77
2022-08-25T18:13:00.841Z,23.95
2022-08-25T18:15:29.614Z,23.52
2022-08-25T18:17:58.525Z,23.23
2022-08-25T18:20:26.488Z,24.10
2022-08-25T18:22:59.757Z,90.57
2022-08-25T18:25:29.041Z,21.65
2022-08-25T18:27:58.107Z,24.20
2022-08-25T18:30:27.432Z,91.03
2022-08-25T18:32:55.046Z,68.70
2022-08-25T18:35:22.598Z,93.82
2022-08-25T18:38:13.156Z,23.45
2022-08-25T18:40:41.848Z,52.25
2022-08-25T18:43:12.001Z,25.73
2022-08-25T18:45:48.051Z,22.30
2022-08-25T18:48:18.082Z,25.40
2022-08-25T18:50:50.651Z,26.25
2022-08-25T18:53:30.691Z,27.63
2022-08-25T18:56:06.784Z,20.98
2022-08-25T18:58:34.256Z,21.15
2022-08-25T19:01:04.866Z,21.75
2022-08-25T19:03:32.723Z,85.00
2022-08-25T19:06:00.849Z,66.28
2022-08-25T19:08:28.789Z,69.32
2022-08-25T19:10:56.478Z,65.38
2022-08-25T19:13:24.065Z,22.80
2022-08-25T19:15:52.743Z,20.42
2022-08-25T19:18:26.027Z,21.77
2022-08-25T19:20:58.249Z,22.48
2022-08-25T19:23:26.891Z,14.57
2022-08-25T19:25:54.215Z,16.42
2022-08-25T19:28:26.850Z,22.30
2022-08-25T19:30:54.934Z,16.27
2022-08-25T19:33:42.302Z,16.05
2022-08-25T19:36:10.014Z,15.73
2022-08-25T19:38:38.053Z,15.80
2022-08-25T19:41:10.619Z,16.45
2022-08-25T19:43:55.226Z,20.85
2022-08-25T19:46:32.072Z,18.17
2022-08-25T19:49:09.078Z,21.13
2022-08-25T19:51:43.851Z,19.38
2022-08-25T19:54:17.677Z,19.30
2022-08-25T19:56:54.943Z,19.15
2022-08-25T19:59:40.672Z,19.17
2022-08-25T20:02:18.751Z,20.65
2022-08-25T20:04:49.912Z,20.77
2022-08-25T20:07:23.952Z,20.73
2022-08-25T20:09:55.627Z,20.27
2022-08-25T20:12:24.646Z,20.67
2022-08-25T20:14:53.714Z,23.30
2022-08-25T20:17:26.122Z,28.00
2022-08-25T20:20:01.419Z,26.65
2022-08-25T20:22:34.444Z,25.38
2022-08-25T20:25:13.337Z,25.33
2022-08-25T20:27:47.850Z,20.70
2022-08-25T20:30:29.809Z,24.15
2022-08-25T20:32:58.409Z,21.77
2022-08-25T20:35:27.774Z,19.90
2022-08-25T20:37:58.312Z,19.08
2022-08-25T20:40:29.480Z,19.75
2022-08-25T20:43:00.623Z,18.20
2022-08-25T20:47:57.784Z,17.20
2022-08-25T20:50:25.639Z,20.33
2022-08-25T20:52:56.773Z,18.75
2022-08-25T20:55:25.163Z,20.10
2022-08-25T20:57:54.044Z,20.35
2022-08-25T21:00:23.598Z,20.90
2022-08-25T21:02:52.892Z,18.52
2022-08-25T21:05:20.380Z,16.25
2022-08-25T21:07:48.924Z,13.43
2022-08-25T21:10:16.536Z,14.23
2022-08-25T21:12:45.278Z,15.57
2022-08-25T21:15:18.149Z,14.00
2022-08-25T21:17:50.181Z,15.25
2022-08-25T21:20:18.254Z,15.98
2022-08-25T21:22:45.704Z,15.30
2022-08-25T21:25:13.899Z,16.83
2022-08-25T21:27:41.504Z,15.48
2022-08-25T21:30:11.855Z,17.85
2022-08-25T21:32:39.363Z,19.75
2022-08-25T21:35:07.924Z,19.17
2022-08-25T21:37:35.622Z,19.05
2022-08-25T21:40:03.473Z,18.25
2022-08-25T21:42:34.611Z,17.33
2022-08-25T21:45:02.801Z,19.60
2022-08-25T21:47:30.323Z,18.23
2022-08-25T21:49:57.942Z,18.77
2022-08-25T21:52:25.371Z,17.42
2022-08-25T21:54:52.723Z,16.13
2022-08-25T21:57:23.591Z,16.98
2022-08-25T21:59:51.835Z,17.15
2022-08-25T22:02:22.502Z,17.92
2022-08-25T22:04:54.372Z,18.65
2022-08-25T22:07:24.712Z,13.23
2022-08-25T22:09:53.184Z,12.75
2022-08-25T22:12:20.705Z,15.15
2022-08-25T22:14:48.532Z,14.52
2022-08-25T22:17:16.956Z,14.57
2022-08-25T22:19:45.882Z,13.48
2022-08-25T22:22:15.828Z,15.48
2022-08-25T22:24:48.518Z,16.80
2022-08-25T22:27:17.218Z,15.77
2022-08-25T22:29:44.801Z,16.27
2022-08-25T22:32:13.503Z,14.30
2022-08-25T22:34:41.629Z,16.23
2022-08-25T22:37:11.138Z,20.00
2022-08-25T22:39:40.349Z,20.95
2022-08-25T22:42:07.866Z,21.70
2022-08-25T22:44:38.900Z,20.85
2022-08-25T22:47:09.450Z,23.65
2022-08-25T22:49:40.343Z,23.23
2022-08-25T22:52:09.251Z,23.95
2022-08-25T22:54:39.091Z,25.02
2022-08-25T22:57:07.025Z,23.65
2022-08-25T22:59:34.720Z,23.25
2022-08-25T23:02:02.079Z,21.70
2022-08-25T23:04:29.720Z,23.20
2022-08-25T23:06:57.109Z,23.23
2022-08-25T23:09:25.018Z,23.38
2022-08-25T23:11:52.498Z,21.98
2022-08-25T23:14:20.960Z,22.80
2022-08-25T23:16:50.182Z,22.08
2022-08-25T23:19:18.467Z,24.20
2022-08-25T23:22:05.710Z,21.50
2022-08-25T23:24:33.381Z,21.98
2022-08-25T23:27:02.533Z,25.70
2022-08-25T23:29:34.469Z,20.00
2022-08-25T23:32:02.367Z,18.90
2022-08-25T23:34:30.059Z,19.75
2022-08-25T23:36:57.923Z,20.23
2022-08-25T23:39:25.622Z,20.92
2022-08-25T23:41:53.552Z,19.20
2022-08-25T23:44:22.661Z,20.00
2022-08-25T23:46:53.759Z,21.52
2022-08-25T23:49:23.521Z,23.50
2022-08-25T23:51:52.720Z,22.58
2022-08-25T23:54:21.557Z,21.65
2022-08-25T23:56:52.224Z,20.23
2022-08-25T23:59:24.276Z,21.27
